sensor_id;sensor_type;location;lat;lon;timestamp;P1;durP1;ratioP1;P2;durP2;ratioP2
5622;SDS011;2833;50.432;10.706;2022-12-20T00:00:52;42.87;;;18.97;;
5622;SDS011;2833;50.432;10.706;2022-12-20T00:03:18;35.33;;;16.10;;
5622;SDS011;2833;50.432;10.706;2022-12-20T00:05:44;33.70;;;18.23;;
5622;SDS011;2833;50.432;10.706;2022-12-20T00:08:09;36.27;;;17.20;;
5622;SDS011;2833;50.432;10.706;2022-12-20T00:10:35;38.73;;;18.40;;
5622;SDS011;2833;50.432;10.706;2022-12-20T00:13:00;30.20;;;15.47;;
5622;SDS011;2833;50.432;10.706;2022-12-20T00:15:26;41.40;;;17.30;;
5622;SDS011;2833;50.432;10.706;2022-12-20T00:17:51;35.30;;;16.20;;
5622;SDS011;2833;50.432;10.706;2022-12-20T00:20:16;34.80;;;17.40;;
5622;SDS011;2833;50.432;10.706;2022-12-20T00:22:41;38.73;;;17.43;;
5622;SDS011;2833;50.432;10.706;2022-12-20T00:25:07;37.40;;;17.20;;
5622;SDS011;2833;50.432;10.706;2022-12-20T00:27:32;47.80;;;20.60;;
5622;SDS011;2833;50.432;10.706;2022-12-20T00:29:57;36.07;;;16.67;;
5622;SDS011;2833;50.432;10.706;2022-12-20T00:32:22;43.57;;;21.67;;
5622;SDS011;2833;50.432;10.706;2022-12-20T00:34:47;59.90;;;29.13;;
5622;SDS011;2833;50.432;10.706;2022-12-20T00:37:13;58.17;;;26.30;;
5622;SDS011;2833;50.432;10.706;2022-12-20T00:39:38;50.00;;;24.90;;
5622;SDS011;2833;50.432;10.706;2022-12-20T00:42:03;32.63;;;16.90;;
5622;SDS011;2833;50.432;10.706;2022-12-20T00:44:28;44.97;;;17.83;;
5622;SDS011;2833;50.432;10.706;2022-12-20T00:46:54;40.67;;;17.70;;
5622;SDS011;2833;50.432;10.706;2022-12-20T00:49:19;32.93;;;16.20;;
5622;SDS011;2833;50.432;10.706;2022-12-20T00:51:44;41.50;;;20.10;;
5622;SDS011;2833;50.432;10.706;2022-12-20T00:54:09;48.67;;;21.87;;
5622;SDS011;2833;50.432;10.706;2022-12-20T00:56:35;33.30;;;16.50;;
5622;SDS011;2833;50.432;10.706;2022-12-20T00:59:00;48.53;;;21.20;;
5622;SDS011;2833;50.432;10.706;2022-12-20T01:01:26;38.10;;;16.80;;
5622;SDS011;2833;50.432;10.706;2022-12-20T01:03:52;35.33;;;17.17;;
5622;SDS011;2833;50.432;10.706;2022-12-20T01:06:18;35.47;;;16.63;;
5622;SDS011;2833;50.432;10.706;2022-12-20T01:08:43;35.90;;;18.53;;
5622;SDS011;2833;50.432;10.706;2022-12-20T01:11:10;33.77;;;17.93;;
5622;SDS011;2833;50.432;10.706;2022-12-20T01:13:37;41.87;;;17.33;;
5622;SDS011;2833;50.432;10.706;2022-12-20T01:16:06;35.60;;;17.33;;
5622;SDS011;2833;50.432;10.706;2022-12-20T01:18:31;36.97;;;18.23;;
5622;SDS011;2833;50.432;10.706;2022-12-20T01:21:01;33.00;;;16.53;;
5622;SDS011;2833;50.432;10.706;2022-12-20T01:23:26;36.77;;;16.93;;
5622;SDS011;2833;50.432;10.706;2022-12-20T01:25:51;31.27;;;15.87;;
5622;SDS011;2833;50.432;10.706;2022-12-20T01:28:17;35.93;;;16.00;;
5622;SDS011;2833;50.432;10.706;2022-12-20T01:30:42;37.00;;;17.00;;
5622;SDS011;2833;50.432;10.706;2022-12-20T01:33:07;33.33;;;15.90;;
5622;SDS011;2833;50.432;10.706;2022-12-20T01:35:32;40.47;;;17.00;;
5622;SDS011;2833;50.432;10.706;2022-12-20T01:37:57;35.53;;;17.20;;
5622;SDS011;2833;50.432;10.706;2022-12-20T01:40:23;34.40;;;17.03;;
5622;SDS011;2833;50.432;10.706;2022-12-20T01:42:48;39.37;;;17.40;;
5622;SDS011;2833;50.432;10.706;2022-12-20T01:45:14;37.70;;;17.43;;
5622;SDS011;2833;50.432;10.706;2022-12-20T01:47:44;35.90;;;18.37;;
5622;SDS011;2833;50.432;10.706;2022-12-20T01:50:10;43.37;;;18.60;;
5622;SDS011;2833;50.432;10.706;2022-12-20T01:52:39;37.10;;;16.80;;
5622;SDS011;2833;50.432;10.706;2022-12-20T01:55:08;33.60;;;16.30;;
5622;SDS011;2833;50.432;10.706;2022-12-20T01:57:39;32.73;;;16.50;;
5622;SDS011;2833;50.432;10.706;2022-12-20T02:00:06;35.63;;;15.80;;
5622;SDS011;2833;50.432;10.706;2022-12-20T02:02:33;38.70;;;16.00;;
5622;SDS011;2833;50.432;10.706;2022-12-20T02:04:59;36.73;;;15.87;;
5622;SDS011;2833;50.432;10.706;2022-12-20T02:07:25;37.67;;;17.33;;
5622;SDS011;2833;50.432;10.706;2022-12-20T02:09:50;32.70;;;15.20;;
5622;SDS011;2833;50.432;10.706;2022-12-20T02:12:19;33.70;;;15.80;;
5622;SDS011;2833;50.432;10.706;2022-12-20T02:14:58;31.77;;;15.23;;
5622;SDS011;2833;50.432;10.706;2022-12-20T02:17:34;37.63;;;15.60;;
5622;SDS011;2833;50.432;10.706;2022-12-20T02:20:15;32.73;;;15.10;;
5622;SDS011;2833;50.432;10.706;2022-12-20T02:30:45;34.37;;;16.63;;
5622;SDS011;2833;50.432;10.706;2022-12-20T02:33:12;35.33;;;16.67;;
5622;SDS011;2833;50.432;10.706;2022-12-20T02:35:39;32.53;;;15.10;;
5622;SDS011;2833;50.432;10.706;2022-12-20T02:40:48;42.63;;;16.80;;
5622;SDS011;2833;50.432;10.706;2022-12-20T02:43:15;38.30;;;16.50;;
5622;SDS011;2833;50.432;10.706;2022-12-20T02:45:59;39.77;;;18.03;;
5622;SDS011;2833;50.432;10.706;2022-12-20T02:48:26;35.73;;;15.47;;
5622;SDS011;2833;50.432;10.706;2022-12-20T02:50:53;35.60;;;16.17;;
5622;SDS011;2833;50.432;10.706;2022-12-20T02:53:20;36.83;;;17.40;;
5622;SDS011;2833;50.432;10.706;2022-12-20T02:58:28;42.20;;;18.53;;
5622;SDS011;2833;50.432;10.706;2022-12-20T03:00:55;38.63;;;16.13;;
5622;SDS011;2833;50.432;10.706;2022-12-20T03:03:21;32.67;;;16.00;;
5622;SDS011;2833;50.432;10.706;2022-12-20T03:05:47;38.13;;;17.10;;
5622;SDS011;2833;50.432;10.706;2022-12-20T03:08:13;35.17;;;16.90;;
5622;SDS011;2833;50.432;10.706;2022-12-20T03:10:38;39.80;;;17.33;;
5622;SDS011;2833;50.432;10.706;2022-12-20T03:13:03;35.67;;;16.53;;
5622;SDS011;2833;50.432;10.706;2022-12-20T03:15:28;32.17;;;15.60;;
5622;SDS011;2833;50.432;10.706;2022-12-20T03:17:54;33.40;;;16.57;;
5622;SDS011;2833;50.432;10.706;2022-12-20T03:20:19;31.53;;;16.20;;
5622;SDS011;2833;50.432;10.706;2022-12-20T03:22:44;39.73;;;16.20;;
5622;SDS011;2833;50.432;10.706;2022-12-20T03:25:09;35.63;;;16.40;;
5622;SDS011;2833;50.432;10.706;2022-12-20T03:27:35;36.73;;;15.93;;
5622;SDS011;2833;50.432;10.706;2022-12-20T03:30:00;33.70;;;16.77;;
5622;SDS011;2833;50.432;10.706;2022-12-20T03:32:25;33.27;;;15.70;;
5622;SDS011;2833;50.432;10.706;2022-12-20T03:34:50;37.40;;;17.33;;
5622;SDS011;2833;50.432;10.706;2022-12-20T03:37:15;35.30;;;16.50;;
5622;SDS011;2833;50.432;10.706;2022-12-20T03:39:41;34.33;;;16.33;;
5622;SDS011;2833;50.432;10.706;2022-12-20T03:42:06;32.03;;;15.83;;
5622;SDS011;2833;50.432;10.706;2022-12-20T03:44:32;37.13;;;16.53;;
5622;SDS011;2833;50.432;10.706;2022-12-20T03:46:57;37.27;;;15.97;;
5622;SDS011;2833;50.432;10.706;2022-12-20T03:49:22;32.30;;;15.53;;
5622;SDS011;2833;50.432;10.706;2022-12-20T03:51:47;39.90;;;18.40;;
5622;SDS011;2833;50.432;10.706;2022-12-20T03:54:13;30.93;;;15.30;;
5622;SDS011;2833;50.432;10.706;2022-12-20T03:56:38;33.53;;;16.50;;
5622;SDS011;2833;50.432;10.706;2022-12-20T03:59:03;40.53;;;15.70;;
5622;SDS011;2833;50.432;10.706;2022-12-20T04:01:28;33.50;;;15.67;;
5622;SDS011;2833;50.432;10.706;2022-12-20T04:03:54;45.50;;;17.53;;
5622;SDS011;2833;50.432;10.706;2022-12-20T04:06:20;29.47;;;14.80;;
5622;SDS011;2833;50.432;10.706;2022-12-20T04:08:45;36.37;;;16.77;;
5622;SDS011;2833;50.432;10.706;2022-12-20T04:11:11;40.10;;;18.60;;
5622;SDS011;2833;50.432;10.706;2022-12-20T04:13:46;32.67;;;15.30;;
5622;SDS011;2833;50.432;10.706;2022-12-20T04:16:12;36.73;;;15.87;;
5622;SDS011;2833;50.432;10.706;2022-12-20T04:18:37;45.20;;;19.50;;
5622;SDS011;2833;50.432;10.706;2022-12-20T04:21:02;36.30;;;16.90;;
5622;SDS011;2833;50.432;10.706;2022-12-20T04:23:28;35.27;;;17.70;;
5622;SDS011;2833;50.432;10.706;2022-12-20T04:25:53;34.07;;;16.53;;
5622;SDS011;2833;50.432;10.706;2022-12-20T04:28:18;36.70;;;16.37;;
5622;SDS011;2833;50.432;10.706;2022-12-20T04:30:43;38.63;;;17.50;;
5622;SDS011;2833;50.432;10.706;2022-12-20T04:33:09;39.97;;;16.80;;
5622;SDS011;2833;50.432;10.706;2022-12-20T04:35:35;39.93;;;18.23;;
5622;SDS011;2833;50.432;10.706;2022-12-20T04:38:00;34.87;;;16.47;;
5622;SDS011;2833;50.432;10.706;2022-12-20T04:40:25;36.87;;;17.50;;
5622;SDS011;2833;50.432;10.706;2022-12-20T04:42:51;37.63;;;18.60;;
5622;SDS011;2833;50.432;10.706;2022-12-20T04:45:16;36.33;;;17.50;;
5622;SDS011;2833;50.432;10.706;2022-12-20T04:47:41;38.50;;;18.20;;
5622;SDS011;2833;50.432;10.706;2022-12-20T04:50:06;40.87;;;20.87;;
5622;SDS011;2833;50.432;10.706;2022-12-20T04:52:32;44.90;;;19.70;;
5622;SDS011;2833;50.432;10.706;2022-12-20T04:55:16;40.80;;;18.40;;
5622;SDS011;2833;50.432;10.706;2022-12-20T04:57:41;35.80;;;17.63;;
5622;SDS011;2833;50.432;10.706;2022-12-20T05:00:06;44.03;;;19.97;;
5622;SDS011;2833;50.432;10.706;2022-12-20T05:02:32;43.17;;;18.67;;
5622;SDS011;2833;50.432;10.706;2022-12-20T05:04:57;42.53;;;18.33;;
5622;SDS011;2833;50.432;10.706;2022-12-20T05:07:23;39.13;;;19.40;;
5622;SDS011;2833;50.432;10.706;2022-12-20T05:09:48;36.80;;;19.00;;
5622;SDS011;2833;50.432;10.706;2022-12-20T05:12:15;39.07;;;17.43;;
5622;SDS011;2833;50.432;10.706;2022-12-20T05:14:40;33.33;;;17.40;;
5622;SDS011;2833;50.432;10.706;2022-12-20T05:17:05;45.10;;;19.87;;
5622;SDS011;2833;50.432;10.706;2022-12-20T05:19:30;40.57;;;17.70;;
5622;SDS011;2833;50.432;10.706;2022-12-20T05:21:55;36.10;;;17.80;;
5622;SDS011;2833;50.432;10.706;2022-12-20T05:24:39;37.70;;;17.23;;
5622;SDS011;2833;50.432;10.706;2022-12-20T05:27:23;35.43;;;16.63;;
5622;SDS011;2833;50.432;10.706;2022-12-20T05:29:48;37.10;;;18.43;;
5622;SDS011;2833;50.432;10.706;2022-12-20T05:32:14;42.47;;;19.10;;
5622;SDS011;2833;50.432;10.706;2022-12-20T05:34:39;33.73;;;15.20;;
5622;SDS011;2833;50.432;10.706;2022-12-20T05:37:04;38.23;;;17.90;;
5622;SDS011;2833;50.432;10.706;2022-12-20T05:39:29;44.50;;;18.90;;
5622;SDS011;2833;50.432;10.706;2022-12-20T05:41:55;41.17;;;19.30;;
5622;SDS011;2833;50.432;10.706;2022-12-20T05:44:20;37.53;;;19.90;;
5622;SDS011;2833;50.432;10.706;2022-12-20T05:46:46;46.87;;;19.53;;
5622;SDS011;2833;50.432;10.706;2022-12-20T05:49:11;43.80;;;18.73;;
5622;SDS011;2833;50.432;10.706;2022-12-20T05:51:36;43.03;;;19.00;;
5622;SDS011;2833;50.432;10.706;2022-12-20T05:54:02;40.17;;;18.63;;
5622;SDS011;2833;50.432;10.706;2022-12-20T05:56:27;37.80;;;18.33;;
5622;SDS011;2833;50.432;10.706;2022-12-20T05:58:52;36.90;;;18.10;;
5622;SDS011;2833;50.432;10.706;2022-12-20T06:01:17;45.83;;;20.20;;
5622;SDS011;2833;50.432;10.706;2022-12-20T06:03:43;48.97;;;22.40;;
5622;SDS011;2833;50.432;10.706;2022-12-20T06:06:09;48.20;;;23.10;;
5622;SDS011;2833;50.432;10.706;2022-12-20T06:08:34;40.10;;;19.67;;
5622;SDS011;2833;50.432;10.706;2022-12-20T06:11:00;44.73;;;22.93;;
5622;SDS011;2833;50.432;10.706;2022-12-20T06:13:27;53.13;;;24.60;;
5622;SDS011;2833;50.432;10.706;2022-12-20T06:15:52;37.77;;;17.40;;
5622;SDS011;2833;50.432;10.706;2022-12-20T06:18:18;24.53;;;11.93;;
5622;SDS011;2833;50.432;10.706;2022-12-20T06:20:48;40.30;;;20.50;;
5622;SDS011;2833;50.432;10.706;2022-12-20T06:23:13;49.57;;;22.73;;
5622;SDS011;2833;50.432;10.706;2022-12-20T06:25:38;56.73;;;24.70;;
5622;SDS011;2833;50.432;10.706;2022-12-20T06:28:03;42.47;;;20.67;;
5622;SDS011;2833;50.432;10.706;2022-12-20T06:30:29;42.60;;;22.10;;
5622;SDS011;2833;50.432;10.706;2022-12-20T06:32:54;41.23;;;19.73;;
5622;SDS011;2833;50.432;10.706;2022-12-20T06:35:20;39.63;;;17.80;;
5622;SDS011;2833;50.432;10.706;2022-12-20T06:37:45;36.83;;;16.60;;
5622;SDS011;2833;50.432;10.706;2022-12-20T06:40:11;37.07;;;17.50;;
5622;SDS011;2833;50.432;10.706;2022-12-20T06:42:37;37.03;;;19.03;;
5622;SDS011;2833;50.432;10.706;2022-12-20T06:45:03;42.50;;;21.23;;
5622;SDS011;2833;50.432;10.706;2022-12-20T06:47:28;43.20;;;21.10;;
5622;SDS011;2833;50.432;10.706;2022-12-20T06:49:54;59.13;;;30.80;;
5622;SDS011;2833;50.432;10.706;2022-12-20T06:52:19;52.50;;;23.90;;
5622;SDS011;2833;50.432;10.706;2022-12-20T06:54:44;45.53;;;23.50;;
5622;SDS011;2833;50.432;10.706;2022-12-20T06:57:09;52.53;;;23.80;;
5622;SDS011;2833;50.432;10.706;2022-12-20T06:59:35;54.53;;;24.07;;
5622;SDS011;2833;50.432;10.706;2022-12-20T07:02:00;34.23;;;17.07;;
5622;SDS011;2833;50.432;10.706;2022-12-20T07:04:25;46.70;;;23.47;;
5622;SDS011;2833;50.432;10.706;2022-12-20T07:06:50;42.00;;;21.27;;
5622;SDS011;2833;50.432;10.706;2022-12-20T07:09:16;54.20;;;29.07;;
5622;SDS011;2833;50.432;10.706;2022-12-20T07:11:41;47.67;;;22.23;;
5622;SDS011;2833;50.432;10.706;2022-12-20T07:14:07;43.90;;;21.57;;
5622;SDS011;2833;50.432;10.706;2022-12-20T07:16:32;48.63;;;22.83;;
5622;SDS011;2833;50.432;10.706;2022-12-20T07:18:58;63.43;;;32.47;;
5622;SDS011;2833;50.432;10.706;2022-12-20T07:21:23;60.23;;;28.20;;
5622;SDS011;2833;50.432;10.706;2022-12-20T07:23:48;39.70;;;19.67;;
5622;SDS011;2833;50.432;10.706;2022-12-20T07:26:14;34.40;;;16.50;;
5622;SDS011;2833;50.432;10.706;2022-12-20T07:28:40;47.03;;;21.50;;
5622;SDS011;2833;50.432;10.706;2022-12-20T07:31:05;44.50;;;21.07;;
5622;SDS011;2833;50.432;10.706;2022-12-20T07:33:31;42.60;;;21.23;;
5622;SDS011;2833;50.432;10.706;2022-12-20T07:36:00;47.17;;;24.20;;
5622;SDS011;2833;50.432;10.706;2022-12-20T07:38:25;53.33;;;24.27;;
5622;SDS011;2833;50.432;10.706;2022-12-20T07:40:51;63.80;;;32.93;;
5622;SDS011;2833;50.432;10.706;2022-12-20T07:43:16;56.07;;;30.07;;
5622;SDS011;2833;50.432;10.706;2022-12-20T07:45:41;66.87;;;31.37;;
5622;SDS011;2833;50.432;10.706;2022-12-20T07:48:07;66.57;;;30.43;;
5622;SDS011;2833;50.432;10.706;2022-12-20T07:50:32;40.33;;;19.90;;
5622;SDS011;2833;50.432;10.706;2022-12-20T07:52:58;45.07;;;20.50;;
5622;SDS011;2833;50.432;10.706;2022-12-20T07:55:24;56.60;;;25.03;;
5622;SDS011;2833;50.432;10.706;2022-12-20T07:57:53;42.80;;;21.77;;
5622;SDS011;2833;50.432;10.706;2022-12-20T08:00:21;41.40;;;20.73;;
5622;SDS011;2833;50.432;10.706;2022-12-20T08:02:47;52.63;;;25.10;;
5622;SDS011;2833;50.432;10.706;2022-12-20T08:05:13;48.50;;;23.87;;
5622;SDS011;2833;50.432;10.706;2022-12-20T08:07:39;45.80;;;22.50;;
5622;SDS011;2833;50.432;10.706;2022-12-20T08:10:06;50.73;;;23.57;;
5622;SDS011;2833;50.432;10.706;2022-12-20T08:12:32;46.20;;;21.43;;
5622;SDS011;2833;50.432;10.706;2022-12-20T08:14:57;48.80;;;22.50;;
5622;SDS011;2833;50.432;10.706;2022-12-20T08:17:23;56.53;;;21.30;;
5622;SDS011;2833;50.432;10.706;2022-12-20T08:19:48;43.90;;;22.27;;
5622;SDS011;2833;50.432;10.706;2022-12-20T08:22:16;54.30;;;26.43;;
5622;SDS011;2833;50.432;10.706;2022-12-20T08:24:41;81.93;;;38.63;;
5622;SDS011;2833;50.432;10.706;2022-12-20T08:27:07;100.37;;;29.20;;
5622;SDS011;2833;50.432;10.706;2022-12-20T08:29:32;65.90;;;29.73;;
5622;SDS011;2833;50.432;10.706;2022-12-20T08:31:57;124.60;;;52.83;;
5622;SDS011;2833;50.432;10.706;2022-12-20T08:34:23;88.13;;;41.10;;
5622;SDS011;2833;50.432;10.706;2022-12-20T08:36:48;74.87;;;32.73;;
5622;SDS011;2833;50.432;10.706;2022-12-20T08:39:13;78.40;;;34.67;;
5622;SDS011;2833;50.432;10.706;2022-12-20T08:41:38;57.67;;;26.23;;
5622;SDS011;2833;50.432;10.706;2022-12-20T08:44:04;57.17;;;28.30;;
5622;SDS011;2833;50.432;10.706;2022-12-20T08:46:29;57.10;;;29.17;;
5622;SDS011;2833;50.432;10.706;2022-12-20T08:48:54;81.33;;;33.73;;
5622;SDS011;2833;50.432;10.706;2022-12-20T08:51:20;53.63;;;24.80;;
5622;SDS011;2833;50.432;10.706;2022-12-20T08:53:45;54.57;;;23.80;;
5622;SDS011;2833;50.432;10.706;2022-12-20T08:56:11;55.43;;;28.37;;
5622;SDS011;2833;50.432;10.706;2022-12-20T08:58:37;53.80;;;26.10;;
5622;SDS011;2833;50.432;10.706;2022-12-20T09:01:03;54.80;;;25.50;;
5622;SDS011;2833;50.432;10.706;2022-12-20T09:03:29;46.53;;;20.90;;
5622;SDS011;2833;50.432;10.706;2022-12-20T09:05:55;42.70;;;20.10;;
5622;SDS011;2833;50.432;10.706;2022-12-20T09:08:20;51.40;;;22.07;;
5622;SDS011;2833;50.432;10.706;2022-12-20T09:10:46;49.53;;;24.23;;
5622;SDS011;2833;50.432;10.706;2022-12-20T09:13:11;44.43;;;20.17;;
5622;SDS011;2833;50.432;10.706;2022-12-20T09:15:36;46.93;;;21.53;;
5622;SDS011;2833;50.432;10.706;2022-12-20T09:18:02;38.97;;;18.93;;
5622;SDS011;2833;50.432;10.706;2022-12-20T09:20:27;45.23;;;20.87;;
5622;SDS011;2833;50.432;10.706;2022-12-20T09:22:52;48.70;;;23.53;;
5622;SDS011;2833;50.432;10.706;2022-12-20T09:25:18;54.20;;;24.00;;
5622;SDS011;2833;50.432;10.706;2022-12-20T09:27:43;53.30;;;22.37;;
5622;SDS011;2833;50.432;10.706;2022-12-20T09:30:09;41.30;;;18.87;;
5622;SDS011;2833;50.432;10.706;2022-12-20T09:32:34;44.97;;;19.90;;
5622;SDS011;2833;50.432;10.706;2022-12-20T09:34:59;39.27;;;19.17;;
5622;SDS011;2833;50.432;10.706;2022-12-20T09:37:25;51.80;;;22.80;;
5622;SDS011;2833;50.432;10.706;2022-12-20T09:39:50;42.93;;;19.30;;
5622;SDS011;2833;50.432;10.706;2022-12-20T09:42:15;45.37;;;21.60;;
5622;SDS011;2833;50.432;10.706;2022-12-20T09:44:41;46.60;;;23.67;;
5622;SDS011;2833;50.432;10.706;2022-12-20T09:47:09;53.60;;;24.90;;
5622;SDS011;2833;50.432;10.706;2022-12-20T09:49:38;48.50;;;21.43;;
5622;SDS011;2833;50.432;10.706;2022-12-20T09:54:39;30.43;;;14.50;;
5622;SDS011;2833;50.432;10.706;2022-12-20T09:57:10;49.40;;;22.03;;
5622;SDS011;2833;50.432;10.706;2022-12-20T09:59:39;51.63;;;20.47;;
5622;SDS011;2833;50.432;10.706;2022-12-20T10:02:08;54.07;;;22.97;;
5622;SDS011;2833;50.432;10.706;2022-12-20T10:04:33;48.70;;;21.20;;
5622;SDS011;2833;50.432;10.706;2022-12-20T10:17:33;43.93;;;21.20;;
5622;SDS011;2833;50.432;10.706;2022-12-20T10:20:03;44.60;;;23.70;;
5622;SDS011;2833;50.432;10.706;2022-12-20T10:22:36;38.20;;;16.10;;
5622;SDS011;2833;50.432;10.706;2022-12-20T10:25:12;45.37;;;20.23;;
5622;SDS011;2833;50.432;10.706;2022-12-20T10:27:41;45.53;;;20.80;;
5622;SDS011;2833;50.432;10.706;2022-12-20T10:30:13;48.53;;;21.40;;
5622;SDS011;2833;50.432;10.706;2022-12-20T10:32:39;40.43;;;19.27;;
5622;SDS011;2833;50.432;10.706;2022-12-20T10:37:34;43.07;;;18.70;;
5622;SDS011;2833;50.432;10.706;2022-12-20T10:39:59;40.17;;;20.60;;
5622;SDS011;2833;50.432;10.706;2022-12-20T10:42:26;39.60;;;19.57;;
5622;SDS011;2833;50.432;10.706;2022-12-20T10:44:54;46.30;;;20.90;;
5622;SDS011;2833;50.432;10.706;2022-12-20T10:50:23;69.00;;;30.83;;
5622;SDS011;2833;50.432;10.706;2022-12-20T10:55:35;37.90;;;19.33;;
5622;SDS011;2833;50.432;10.706;2022-12-20T10:58:02;38.47;;;18.57;;
5622;SDS011;2833;50.432;10.706;2022-12-20T11:00:28;33.30;;;17.47;;
5622;SDS011;2833;50.432;10.706;2022-12-20T11:03:11;44.23;;;17.53;;
5622;SDS011;2833;50.432;10.706;2022-12-20T11:05:36;43.60;;;18.97;;
5622;SDS011;2833;50.432;10.706;2022-12-20T11:08:07;58.23;;;22.90;;
5622;SDS011;2833;50.432;10.706;2022-12-20T11:10:34;97.70;;;35.50;;
5622;SDS011;2833;50.432;10.706;2022-12-20T11:13:00;72.93;;;27.37;;
5622;SDS011;2833;50.432;10.706;2022-12-20T11:15:28;80.70;;;29.37;;
5622;SDS011;2833;50.432;10.706;2022-12-20T11:22:54;131.30;;;42.17;;
5622;SDS011;2833;50.432;10.706;2022-12-20T11:30:46;57.07;;;26.90;;
5622;SDS011;2833;50.432;10.706;2022-12-20T11:33:19;62.80;;;29.33;;
5622;SDS011;2833;50.432;10.706;2022-12-20T11:35:54;88.77;;;37.43;;
5622;SDS011;2833;50.432;10.706;2022-12-20T11:38:33;50.10;;;21.20;;
5622;SDS011;2833;50.432;10.706;2022-12-20T11:41:07;63.60;;;29.10;;
5622;SDS011;2833;50.432;10.706;2022-12-20T11:46:27;54.20;;;24.70;;
5622;SDS011;2833;50.432;10.706;2022-12-20T11:51:46;61.50;;;31.63;;
5622;SDS011;2833;50.432;10.706;2022-12-20T11:54:13;44.80;;;21.10;;
5622;SDS011;2833;50.432;10.706;2022-12-20T11:56:41;38.90;;;19.20;;
5622;SDS011;2833;50.432;10.706;2022-12-20T12:04:34;52.50;;;21.43;;
5622;SDS011;2833;50.432;10.706;2022-12-20T12:10:17;40.13;;;20.87;;
5622;SDS011;2833;50.432;10.706;2022-12-20T12:12:27;40.13;;;18.53;;
5622;SDS011;2833;50.432;10.706;2022-12-20T12:17:56;66.30;;;28.03;;
5622;SDS011;2833;50.432;10.706;2022-12-20T12:20:24;59.30;;;27.50;;
5622;SDS011;2833;50.432;10.706;2022-12-20T12:22:57;34.63;;;16.87;;
5622;SDS011;2833;50.432;10.706;2022-12-20T12:25:24;43.10;;;19.80;;
5622;SDS011;2833;50.432;10.706;2022-12-20T12:27:49;49.77;;;22.90;;
5622;SDS011;2833;50.432;10.706;2022-12-20T12:30:15;56.40;;;27.07;;
5622;SDS011;2833;50.432;10.706;2022-12-20T12:32:42;43.60;;;20.27;;
5622;SDS011;2833;50.432;10.706;2022-12-20T12:43:50;37.10;;;15.53;;
5622;SDS011;2833;50.432;10.706;2022-12-20T12:46:00;33.13;;;17.77;;
5622;SDS011;2833;50.432;10.706;2022-12-20T12:48:30;48.17;;;22.40;;
5622;SDS011;2833;50.432;10.706;2022-12-20T12:50:58;50.43;;;22.30;;
5622;SDS011;2833;50.432;10.706;2022-12-20T12:53:36;48.07;;;22.30;;
5622;SDS011;2833;50.432;10.706;2022-12-20T13:02:21;42.33;;;21.57;;
5622;SDS011;2833;50.432;10.706;2022-12-20T13:11:40;67.10;;;34.20;;
5622;SDS011;2833;50.432;10.706;2022-12-20T13:19:35;40.67;;;19.70;;
5622;SDS011;2833;50.432;10.706;2022-12-20T13:37:55;38.13;;;16.33;;
5622;SDS011;2833;50.432;10.706;2022-12-20T13:40:22;18.93;;;9.90;;
5622;SDS011;2833;50.432;10.706;2022-12-20T13:42:50;28.10;;;12.90;;
5622;SDS011;2833;50.432;10.706;2022-12-20T13:45:17;30.03;;;13.97;;
5622;SDS011;2833;50.432;10.706;2022-12-20T13:47:44;34.33;;;16.33;;
5622;SDS011;2833;50.432;10.706;2022-12-20T13:50:20;18.63;;;10.23;;
5622;SDS011;2833;50.432;10.706;2022-12-20T13:52:46;34.07;;;15.03;;
5622;SDS011;2833;50.432;10.706;2022-12-20T13:55:19;22.53;;;11.57;;
5622;SDS011;2833;50.432;10.706;2022-12-20T13:57:47;33.60;;;15.40;;
5622;SDS011;2833;50.432;10.706;2022-12-20T14:00:24;27.87;;;13.03;;
5622;SDS011;2833;50.432;10.706;2022-12-20T14:02:49;28.97;;;12.27;;
5622;SDS011;2833;50.432;10.706;2022-12-20T14:05:20;32.60;;;15.50;;
5622;SDS011;2833;50.432;10.706;2022-12-20T14:07:47;47.20;;;22.37;;
5622;SDS011;2833;50.432;10.706;2022-12-20T14:10:20;19.30;;;9.70;;
5622;SDS011;2833;50.432;10.706;2022-12-20T14:12:46;34.63;;;13.37;;
5622;SDS011;2833;50.432;10.706;2022-12-20T14:15:46;32.70;;;15.47;;
5622;SDS011;2833;50.432;10.706;2022-12-20T14:20:42;29.83;;;14.10;;
5622;SDS011;2833;50.432;10.706;2022-12-20T14:23:21;32.83;;;14.13;;
5622;SDS011;2833;50.432;10.706;2022-12-20T14:25:50;27.70;;;12.80;;
5622;SDS011;2833;50.432;10.706;2022-12-20T14:28:30;33.70;;;12.60;;
5622;SDS011;2833;50.432;10.706;2022-12-20T14:30:56;39.00;;;16.63;;
5622;SDS011;2833;50.432;10.706;2022-12-20T14:33:35;33.77;;;16.17;;
5622;SDS011;2833;50.432;10.706;2022-12-20T14:38:42;35.17;;;15.30;;
5622;SDS011;2833;50.432;10.706;2022-12-20T14:43:54;36.30;;;17.33;;
5622;SDS011;2833;50.432;10.706;2022-12-20T14:46:20;29.57;;;15.00;;
5622;SDS011;2833;50.432;10.706;2022-12-20T14:48:46;47.07;;;22.23;;
5622;SDS011;2833;50.432;10.706;2022-12-20T14:51:12;45.73;;;23.97;;
5622;SDS011;2833;50.432;10.706;2022-12-20T14:53:38;28.27;;;14.87;;
5622;SDS011;2833;50.432;10.706;2022-12-20T14:56:03;29.23;;;12.57;;
5622;SDS011;2833;50.432;10.706;2022-12-20T14:58:29;39.80;;;20.13;;
5622;SDS011;2833;50.432;10.706;2022-12-20T15:00:56;45.97;;;21.30;;
5622;SDS011;2833;50.432;10.706;2022-12-20T15:03:22;70.57;;;33.80;;
5622;SDS011;2833;50.432;10.706;2022-12-20T15:05:48;64.57;;;31.70;;
5622;SDS011;2833;50.432;10.706;2022-12-20T15:10:43;51.60;;;26.10;;
5622;SDS011;2833;50.432;10.706;2022-12-20T15:13:14;49.63;;;21.33;;
5622;SDS011;2833;50.432;10.706;2022-12-20T15:15:39;43.97;;;22.60;;
5622;SDS011;2833;50.432;10.706;2022-12-20T15:18:11;57.10;;;25.97;;
5622;SDS011;2833;50.432;10.706;2022-12-20T15:20:37;63.37;;;30.47;;
5622;SDS011;2833;50.432;10.706;2022-12-20T15:23:02;57.90;;;27.87;;
5622;SDS011;2833;50.432;10.706;2022-12-20T15:25:28;55.27;;;27.83;;
5622;SDS011;2833;50.432;10.706;2022-12-20T15:27:54;65.57;;;34.20;;
5622;SDS011;2833;50.432;10.706;2022-12-20T15:30:19;76.67;;;35.83;;
5622;SDS011;2833;50.432;10.706;2022-12-20T15:32:44;77.73;;;37.57;;
5622;SDS011;2833;50.432;10.706;2022-12-20T15:35:12;125.83;;;67.27;;
5622;SDS011;2833;50.432;10.706;2022-12-20T15:37:38;64.70;;;35.50;;
5622;SDS011;2833;50.432;10.706;2022-12-20T15:40:03;50.27;;;26.27;;
5622;SDS011;2833;50.432;10.706;2022-12-20T15:42:28;58.33;;;26.10;;
5622;SDS011;2833;50.432;10.706;2022-12-20T15:44:54;42.67;;;22.50;;
5622;SDS011;2833;50.432;10.706;2022-12-20T15:47:19;40.63;;;21.33;;
5622;SDS011;2833;50.432;10.706;2022-12-20T15:49:44;47.73;;;24.60;;
5622;SDS011;2833;50.432;10.706;2022-12-20T15:52:15;49.10;;;23.53;;
5622;SDS011;2833;50.432;10.706;2022-12-20T15:54:42;50.60;;;24.50;;
5622;SDS011;2833;50.432;10.706;2022-12-20T15:57:08;38.80;;;20.30;;
5622;SDS011;2833;50.432;10.706;2022-12-20T15:59:35;47.80;;;22.73;;
5622;SDS011;2833;50.432;10.706;2022-12-20T16:02:00;44.27;;;21.73;;
5622;SDS011;2833;50.432;10.706;2022-12-20T16:04:26;43.20;;;21.30;;
5622;SDS011;2833;50.432;10.706;2022-12-20T16:06:52;40.43;;;18.53;;
5622;SDS011;2833;50.432;10.706;2022-12-20T16:09:17;42.13;;;19.70;;
5622;SDS011;2833;50.432;10.706;2022-12-20T16:11:43;36.03;;;18.17;;
5622;SDS011;2833;50.432;10.706;2022-12-20T16:14:11;48.73;;;22.40;;
5622;SDS011;2833;50.432;10.706;2022-12-20T16:16:38;37.57;;;18.70;;
5622;SDS011;2833;50.432;10.706;2022-12-20T16:19:03;38.53;;;20.00;;
5622;SDS011;2833;50.432;10.706;2022-12-20T16:21:32;26.47;;;12.73;;
5622;SDS011;2833;50.432;10.706;2022-12-20T16:23:57;32.77;;;14.57;;
5622;SDS011;2833;50.432;10.706;2022-12-20T16:26:23;27.43;;;14.60;;